Time,TemperatureF,DewpointF,PressureIn,WindDirection,WindDirectionDegrees,WindSpeedMPH,WindSpeedGustMPH,Humidity,HourlyPrecipIn,Conditions,Clouds,dailyrainin,SoftwareType,DateUTC
2013-03-24 00:00:00,26.2,19.4,30.17,WNW,296,2.3,2.3,75,0.00,CLR,,0.00,WeatherDisplay:10.37,2013-03-24 05:00:00,
2013-03-24 00:05:00,26.2,19.4,30.17,WNW,296,3.5,3.5,75,0.00,CLR,,0.00,WeatherDisplay:10.37,2013-03-24 05:05:00,
2013-03-24 00:10:00,26.1,19.3,30.17,WNW,296,0.0,0.0,75,0.00,CLR,,0.00,WeatherDisplay:10.37,2013-03-24 05:10:00,
2013-03-24 00:15:00,26.0,19.5,30.17,WNW,295,0.0,0.0,76,0.00,CLR,,0.00,WeatherDisplay:10.37,2013-03-24 05:15:00,
2013-03-24 00:20:00,25.9,19.4,30.17,WNW,295,0.0,0.0,76,0.00,CLR,,0.00,WeatherDisplay:10.37,2013-03-24 05:20:00,
2013-03-24 00:25:00,25.9,19.4,30.17,WNW,295,0.0,0.0,76,0.00,CLR,,0.00,WeatherDisplay:10.37,2013-03-24 05:25:00,
2013-03-24 00:30:00,25.8,19.3,30.17,WNW,296,0.0,0.0,76,0.00,CLR,,0.00,WeatherDisplay:10.37,2013-03-24 05:30:00,
2013-03-24 00:35:00,25.8,19.3,30.17,WNW,296,0.0,0.0,76,0.00,CLR,,0.00,WeatherDisplay:10.37,2013-03-24 05:35:00,
2013-03-24 00:40:00,25.7,19.5,30.17,WNW,296,0.0,0.0,77,0.00,CLR,,0.00,WeatherDisplay:10.37,2013-03-24 05:40:00,
2013-03-24 00:46:00,25.5,19.3,30.17,WNW,295,0.0,0.0,77,0.00,CLR,,0.00,WeatherDisplay:10.37,2013-03-24 05:46:00,
2013-03-24 00:51:00,25.3,19.1,30.16,WNW,296,0.0,0.0,77,0.00,CLR,,0.00,WeatherDisplay:10.37,2013-03-24 05:51:00,
2013-03-24 00:56:00,25.3,19.4,30.17,WNW,295,0.0,0.0,78,0.00,CLR,,0.00,WeatherDisplay:10.37,2013-03-24 05:56:00,
2013-03-24 01:01:00,25.3,19.4,30.16,WNW,296,0.0,0.0,78,0.00,CLR,,0.00,WeatherDisplay:10.37,2013-03-24 06:01:00,
2013-03-24 01:06:00,25.5,19.6,30.16,WNW,296,0.0,0.0,78,0.00,CLR,,0.00,WeatherDisplay:10.37,2013-03-24 06:06:00,
2013-03-24 01:11:00,25.6,19.7,30.16,WNW,296,0.0,0.0,78,0.00,CLR,,0.00,WeatherDisplay:10.37,2013-03-24 06:11:00,
2013-03-24 01:16:00,25.6,19.7,30.16,WNW,296,0.0,0.0,78,0.00,CLR,,0.00,WeatherDisplay:10.37,2013-03-24 06:16:00,
2013-03-24 01:21:00,25.6,19.7,30.16,WNW,295,0.0,0.0,78,0.00,CLR,,0.00,WeatherDisplay:10.37,2013-03-24 06:21:00,
2013-03-24 01:26:00,25.6,19.7,30.15,WNW,296,0.0,0.0,78,0.00,CLR,,0.00,WeatherDisplay:10.37,2013-03-24 06:26:00,
2013-03-24 01:31:00,25.5,19.6,30.15,WNW,296,0.0,0.0,78,0.00,CLR,,0.00,WeatherDisplay:10.37,2013-03-24 06:31:00,
2013-03-24 01:36:00,25.4,19.8,30.15,WNW,295,0.0,0.0,79,0.00,CLR,,0.00,WeatherDisplay:10.37,2013-03-24 06:36:00,
2013-03-24 01:41:00,25.4,19.8,30.15,WNW,296,0.0,0.0,79,0.00,CLR,,0.00,WeatherDisplay:10.37,2013-03-24 06:41:00,
2013-03-24 01:46:00,25.3,19.7,30.15,WNW,295,0.0,0.0,79,0.00,CLR,,0.00,WeatherDisplay:10.37,2013-03-24 06:46:00,
2013-03-24 01:51:00,25.3,19.7,30.15,WNW,296,0.0,0.0,79,0.00,CLR,,0.00,WeatherDisplay:10.37,2013-03-24 06:51:00,
2013-03-24 01:56:00,25.3,19.7,30.15,WNW,295,0.0,0.0,79,0.00,CLR,,0.00,WeatherDisplay:10.37,2013-03-24 06:56:00,
2013-03-24 02:01:00,25.3,19.7,30.15,WNW,296,0.0,0.0,79,0.00,CLR,,0.00,WeatherDisplay:10.37,2013-03-24 07:01:00,
2013-03-24 02:06:00,25.4,20.1,30.15,WNW,295,0.0,0.0,80,0.00,CLR,,0.00,WeatherDisplay:10.37,2013-03-24 07:06:00,
2013-03-24 02:11:00,25.4,20.1,30.15,WNW,295,0.0,0.0,80,0.00,CLR,,0.00,WeatherDisplay:10.37,2013-03-24 07:11:00,
2013-03-24 02:17:00,25.5,20.2,30.15,WNW,296,0.0,0.0,80,0.00,CLR,,0.00,WeatherDisplay:10.37,2013-03-24 07:17:00,
2013-03-24 02:22:00,25.4,20.1,30.15,WNW,296,0.0,0.0,80,0.00,CLR,,0.00,WeatherDisplay:10.37,2013-03-24 07:22:00,
2013-03-24 02:27:00,25.5,20.2,30.15,WNW,296,0.0,0.0,80,0.00,CLR,,0.00,WeatherDisplay:10.37,2013-03-24 07:27:00,
2013-03-24 02:32:00,25.5,20.2,30.15,WNW,295,0.0,0.0,80,0.00,CLR,,0.00,WeatherDisplay:10.37,2013-03-24 07:32:00,
2013-03-24 02:37:00,25.5,20.2,30.15,WNW,296,0.0,0.0,80,0.00,CLR,,0.00,WeatherDisplay:10.37,2013-03-24 07:37:00,
2013-03-24 02:42:00,25.5,20.2,30.15,WNW,296,0.0,0.0,80,0.00,CLR,,0.00,WeatherDisplay:10.37,2013-03-24 07:42:00,
2013-03-24 02:47:00,25.4,20.1,30.15,WNW,296,0.0,0.0,80,0.00,CLR,,0.00,WeatherDisplay:10.37,2013-03-24 07:47:00,
2013-03-24 02:52:00,25.4,20.1,30.15,WNW,295,0.0,0.0,80,0.00,CLR,,0.00,WeatherDisplay:10.37,2013-03-24 07:52:00,
2013-03-24 02:57:00,25.4,20.1,30.15,WNW,295,0.0,0.0,80,0.00,CLR,,0.00,WeatherDisplay:10.37,2013-03-24 07:57:00,
2013-03-24 03:02:00,25.5,20.2,30.15,WNW,295,0.0,0.0,80,0.00,CLR,,0.00,WeatherDisplay:10.37,2013-03-24 08:02:00,
2013-03-24 03:07:00,25.5,20.2,30.15,WNW,296,0.0,0.0,80,0.00,CLR,,0.00,WeatherDisplay:10.37,2013-03-24 08:07:00,
2013-03-24 03:12:00,25.5,20.2,30.14,WNW,295,0.0,0.0,80,0.00,CLR,,0.00,WeatherDisplay:10.37,2013-03-24 08:12:00,
2013-03-24 03:17:00,25.5,20.2,30.14,WNW,295,0.0,0.0,80,0.00,CLR,,0.00,WeatherDisplay:10.37,2013-03-24 08:17:00,
2013-03-24 03:22:00,25.5,20.2,30.13,WNW,296,0.0,0.0,80,0.00,CLR,,0.00,WeatherDisplay:10.37,2013-03-24 08:22:00,
2013-03-24 03:27:00,25.5,20.2,30.13,WNW,296,3.5,0.0,80,0.00,CLR,,0.00,WeatherDisplay:10.37,2013-03-24 08:27:00,
2013-03-24 03:32:00,25.4,20.1,30.13,WNW,296,0.0,0.0,80,0.00,CLR,,0.00,WeatherDisplay:10.37,2013-03-24 08:32:00,
2013-03-24 03:37:00,25.5,20.2,30.13,WNW,296,0.0,0.0,80,0.00,CLR,,0.00,WeatherDisplay:10.37,2013-03-24 08:37:00,
2013-03-24 03:42:00,25.5,20.2,30.13,WNW,296,0.0,0.0,80,0.00,CLR,,0.00,WeatherDisplay:10.37,2013-03-24 08:42:00,
2013-03-24 03:47:00,25.5,20.2,30.13,WNW,295,3.5,3.5,80,0.00,CLR,,0.00,WeatherDisplay:10.37,2013-03-24 08:47:00,
2013-03-24 03:52:00,25.4,20.1,30.12,WNW,295,3.5,3.5,80,0.00,CLR,,0.00,WeatherDisplay:10.37,2013-03-24 08:52:00,
2013-03-24 03:57:00,25.4,20.1,30.12,WNW,296,3.5,3.5,80,0.00,CLR,,0.00,WeatherDisplay:10.37,2013-03-24 08:57:00,
2013-03-24 04:02:00,25.3,20.0,30.12,WNW,296,2.3,2.3,80,0.00,CLR,,0.00,WeatherDisplay:10.37,2013-03-24 09:02:00,
2013-03-24 04:07:00,25.5,20.5,30.12,WNW,296,0.0,0.0,81,0.00,CLR,,0.00,WeatherDisplay:10.37,2013-03-24 09:07:00,
2013-03-24 04:12:00,25.4,20.4,30.12,WNW,296,0.0,0.0,81,0.00,CLR,,0.00,WeatherDisplay:10.37,2013-03-24 09:12:00,
2013-03-24 04:17:00,25.3,20.0,30.12,WNW,295,0.0,0.0,80,0.00,CLR,,0.00,WeatherDisplay:10.37,2013-03-24 09:17:00,
2013-03-24 04:22:00,25.4,20.4,30.12,WNW,296,0.0,0.0,81,0.00,CLR,,0.00,WeatherDisplay:10.37,2013-03-24 09:22:00,
2013-03-24 04:27:00,25.4,20.4,30.12,WNW,296,0.0,0.0,81,0.00,CLR,,0.00,WeatherDisplay:10.37,2013-03-24 09:27:00,
2013-03-24 04:32:00,25.4,20.1,30.12,WNW,295,0.0,0.0,80,0.00,CLR,,0.00,WeatherDisplay:10.37,2013-03-24 09:32:00,
2013-03-24 04:37:00,25.4,20.4,30.12,WNW,296,0.0,0.0,81,0.00,CLR,,0.00,WeatherDisplay:10.37,2013-03-24 09:37:00,
2013-03-24 04:42:00,25.4,20.4,30.12,WNW,296,0.0,0.0,81,0.00,CLR,,0.00,WeatherDisplay:10.37,2013-03-24 09:42:00,
2013-03-24 04:47:00,25.4,20.1,30.12,WNW,295,0.0,0.0,80,0.00,CLR,,0.00,WeatherDisplay:10.37,2013-03-24 09:47:00,
2013-03-24 04:52:00,25.4,20.1,30.12,WNW,296,0.0,0.0,80,0.00,CLR,,0.00,WeatherDisplay:10.37,2013-03-24 09:52:00,
2013-03-24 04:57:00,25.4,20.4,30.12,WNW,295,0.0,0.0,81,0.00,CLR,,0.00,WeatherDisplay:10.37,2013-03-24 09:57:00,
2013-03-24 05:02:00,25.4,20.4,30.12,WNW,296,0.0,0.0,81,0.00,CLR,,0.00,WeatherDisplay:10.37,2013-03-24 10:02:00,
2013-03-24 05:07:00,25.4,20.1,30.12,WNW,295,0.0,0.0,80,0.00,CLR,,0.00,WeatherDisplay:10.37,2013-03-24 10:07:00,
2013-03-24 05:12:00,25.4,20.1,30.11,WNW,296,0.0,0.0,80,0.00,CLR,,0.00,WeatherDisplay:10.37,2013-03-24 10:12:00,
2013-03-24 05:17:00,25.4,20.4,30.11,WNW,295,0.0,0.0,81,0.00,CLR,,0.00,WeatherDisplay:10.37,2013-03-24 10:17:00,
2013-03-24 05:22:00,25.4,20.1,30.11,WNW,296,0.0,0.0,80,0.00,CLR,,0.00,WeatherDisplay:10.37,2013-03-24 10:22:00,
2013-03-24 05:27:00,25.4,20.4,30.11,WNW,296,0.0,0.0,81,0.00,CLR,,0.00,WeatherDisplay:10.37,2013-03-24 10:27:00,
2013-03-24 05:33:00,25.4,20.4,30.11,WNW,296,0.0,0.0,81,0.00,CLR,,0.00,WeatherDisplay:10.37,2013-03-24 10:33:00,
2013-03-24 05:38:00,25.4,20.4,30.11,WNW,296,0.0,0.0,81,0.00,CLR,,0.00,WeatherDisplay:10.37,2013-03-24 10:38:00,
2013-03-24 05:43:00,25.4,20.4,30.11,WNW,295,0.0,0.0,81,0.00,CLR,,0.00,WeatherDisplay:10.37,2013-03-24 10:43:00,
2013-03-24 05:48:00,25.5,20.5,30.11,WNW,295,3.5,3.5,81,0.00,CLR,,0.00,WeatherDisplay:10.37,2013-03-24 10:48:00,
2013-03-24 05:53:00,25.6,20.6,30.11,WNW,296,0.0,0.0,81,0.00,CLR,,0.00,WeatherDisplay:10.37,2013-03-24 10:53:00,
2013-03-24 05:58:00,25.6,20.3,30.11,WNW,296,1.2,1.2,80,0.00,CLR,,0.00,WeatherDisplay:10.37,2013-03-24 10:58:00,
2013-03-24 06:03:00,25.7,20.4,30.11,WNW,296,2.3,2.3,80,0.00,CLR,,0.00,WeatherDisplay:10.37,2013-03-24 11:03:00,
2013-03-24 06:08:00,25.7,20.4,30.11,WNW,296,3.5,3.5,80,0.00,CLR,,0.00,WeatherDisplay:10.37,2013-03-24 11:08:00,
2013-03-24 06:13:00,25.7,20.4,30.11,WNW,295,3.5,3.5,80,0.00,CLR,,0.00,WeatherDisplay:10.37,2013-03-24 11:13:00,
2013-03-24 06:18:00,25.8,20.5,30.11,WNW,296,3.5,3.5,80,0.00,CLR,,0.00,WeatherDisplay:10.37,2013-03-24 11:18:00,
2013-03-24 06:23:00,25.8,20.5,30.11,NW,313,3.5,3.5,80,0.00,CLR,,0.00,WeatherDisplay:10.37,2013-03-24 11:23:00,
2013-03-24 06:28:00,25.8,20.2,30.11,NW,313,3.5,3.5,79,0.00,CLR,,0.00,WeatherDisplay:10.37,2013-03-24 11:28:00,
2013-03-24 06:33:00,25.8,20.2,30.11,NW,319,3.5,3.5,79,0.00,CLR,,0.00,WeatherDisplay:10.37,2013-03-24 11:33:00,
2013-03-24 06:38:00,25.8,20.5,30.11,NW,319,3.5,3.5,80,0.00,CLR,,0.00,WeatherDisplay:10.37,2013-03-24 11:38:00,
2013-03-24 06:43:00,25.9,20.3,30.11,NW,318,0.0,0.0,79,0.00,CLR,,0.00,WeatherDisplay:10.37,2013-03-24 11:43:00,
2013-03-24 06:48:00,25.9,20.3,30.11,NW,319,3.5,3.5,79,0.00,CLR,,0.00,WeatherDisplay:10.37,2013-03-24 11:48:00,
2013-03-24 06:53:00,26.0,20.4,30.11,NW,319,3.5,3.5,79,0.00,CLR,,0.00,WeatherDisplay:10.37,2013-03-24 11:53:00,
2013-03-24 06:58:00,26.0,20.4,30.11,NNW,337,3.5,3.5,79,0.00,CLR,,0.00,WeatherDisplay:10.37,2013-03-24 11:58:00,
2013-03-24 07:03:00,26.0,20.7,30.11,NNW,338,0.0,0.0,80,0.00,CLR,,0.00,WeatherDisplay:10.37,2013-03-24 12:03:00,
2013-03-24 07:08:00,26.1,20.8,30.12,NNW,337,3.5,3.5,80,0.00,CLR,,0.00,WeatherDisplay:10.37,2013-03-24 12:08:00,
2013-03-24 07:13:00,26.1,21.1,30.12,NNW,338,0.0,0.0,81,0.00,CLR,,0.00,WeatherDisplay:10.37,2013-03-24 12:13:00,
2013-03-24 07:18:00,26.1,21.1,30.12,NNW,337,0.0,0.0,81,0.00,CLR,,0.00,WeatherDisplay:10.37,2013-03-24 12:18:00,
2013-03-24 07:23:00,26.1,21.4,30.12,NNW,338,0.0,0.0,82,0.00,CLR,,0.00,WeatherDisplay:10.37,2013-03-24 12:23:00,
2013-03-24 07:28:00,26.1,21.4,30.12,NNW,338,0.0,0.0,82,0.00,CLR,,0.00,WeatherDisplay:10.37,2013-03-24 12:28:00,
2013-03-24 07:33:00,26.1,21.6,30.12,NNW,338,0.0,0.0,83,0.00,CLR,,0.00,WeatherDisplay:10.37,2013-03-24 12:33:00,
2013-03-24 07:38:00,26.1,21.9,30.11,NNW,337,0.0,0.0,84,0.00,CLR,,0.00,WeatherDisplay:10.37,2013-03-24 12:38:00,
2013-03-24 07:43:00,26.1,21.9,30.12,NNW,337,0.0,0.0,84,0.00,CLR,,0.00,WeatherDisplay:10.37,2013-03-24 12:43:00,
2013-03-24 07:48:00,26.1,21.9,30.12,NNW,337,0.0,0.0,84,0.00,CLR,,0.00,WeatherDisplay:10.37,2013-03-24 12:48:00,
2013-03-24 07:53:00,26.2,22.3,30.12,NNW,338,0.0,0.0,85,0.00,CLR,,0.00,WeatherDisplay:10.37,2013-03-24 12:53:00,
2013-03-24 07:58:00,26.3,22.7,30.11,NNW,337,0.0,0.0,86,0.00,CLR,,0.00,WeatherDisplay:10.37,2013-03-24 12:58:00,
2013-03-24 08:03:00,26.3,22.7,30.11,NNW,337,3.5,3.5,86,0.00,CLR,,0.00,WeatherDisplay:10.37,2013-03-24 13:03:00,
2013-03-24 08:08:00,26.4,22.8,30.11,NNW,338,0.0,0.0,86,0.00,CLR,,0.00,WeatherDisplay:10.37,2013-03-24 13:08:00,
2013-03-24 08:13:00,26.5,23.2,30.11,NNW,338,0.0,0.0,87,0.00,CLR,,0.00,WeatherDisplay:10.37,2013-03-24 13:13:00,
2013-03-24 08:18:00,26.5,23.2,30.11,NNW,338,0.0,0.0,87,0.00,CLR,,0.00,WeatherDisplay:10.37,2013-03-24 13:18:00,
2013-03-24 08:23:00,26.6,23.3,30.10,NNW,337,0.0,0.0,87,0.00,CLR,,0.00,WeatherDisplay:10.37,2013-03-24 13:23:00,
2013-03-24 08:28:00,26.7,23.4,30.10,NNW,338,3.5,3.5,87,0.00,CLR,,0.00,WeatherDisplay:10.37,2013-03-24 13:28:00,
2013-03-24 08:33:00,26.8,23.4,30.10,NNW,337,1.0,1.0,87,0.00,CLR,,0.00,WeatherDisplay:10.37,2013-03-24 13:33:00,
2013-03-24 08:38:00,27.0,23.6,30.10,NNW,338,0.0,0.0,87,0.00,CLR,,0.00,WeatherDisplay:10.37,2013-03-24 13:38:00,
2013-03-24 08:43:00,27.2,23.8,30.10,NNW,338,3.5,3.5,87,0.00,CLR,,0.00,WeatherDisplay:10.37,2013-03-24 13:43:00,
2013-03-24 08:48:00,27.4,24.0,30.10,NNW,338,3.5,3.5,87,0.00,CLR,,0.00,WeatherDisplay:10.37,2013-03-24 13:48:00,
2013-03-24 08:53:00,27.7,24.1,30.09,NNW,338,3.5,3.5,86,0.00,CLR,,0.00,WeatherDisplay:10.37,2013-03-24 13:53:00,
2013-03-24 08:58:00,28.0,24.1,30.09,North,350,3.5,3.5,85,0.00,CLR,,0.00,WeatherDisplay:10.37,2013-03-24 13:58:00,
2013-03-24 09:03:00,28.2,23.7,30.09,NNW,344,4.6,4.6,83,0.00,CLR,,0.00,WeatherDisplay:10.37,2013-03-24 14:03:00,
2013-03-24 09:08:00,28.3,23.5,30.09,NNE,22,5.8,5.8,82,0.00,CLR,,0.00,WeatherDisplay:10.37,2013-03-24 14:08:00,
2013-03-24 09:13:00,28.4,23.0,30.09,North,360,4.6,4.6,80,0.00,CLR,,0.00,WeatherDisplay:10.37,2013-03-24 14:13:00,
2013-03-24 09:18:00,28.6,22.9,30.09,North,355,3.5,3.5,79,0.00,CLR,,0.00,WeatherDisplay:10.37,2013-03-24 14:18:00,
2013-03-24 09:23:00,28.8,22.8,30.09,North,350,5.8,5.8,78,0.00,CLR,,0.00,WeatherDisplay:10.37,2013-03-24 14:23:00,
2013-03-24 09:28:00,29.0,22.7,30.09,North,355,4.6,4.6,77,0.00,CLR,,0.00,WeatherDisplay:10.37,2013-03-24 14:28:00,
2013-03-24 09:33:00,29.2,22.9,30.09,NNW,339,3.5,3.5,77,0.00,CLR,,0.00,WeatherDisplay:10.37,2013-03-24 14:33:00,
2013-03-24 09:38:00,29.4,22.8,30.09,North,360,3.5,3.5,76,0.00,CLR,,0.00,WeatherDisplay:10.37,2013-03-24 14:38:00,
2013-03-24 09:43:00,29.5,22.6,30.09,NNW,332,3.5,3.5,75,0.00,CLR,,0.00,WeatherDisplay:10.37,2013-03-24 14:43:00,
2013-03-24 09:49:00,29.6,22.3,30.09,NNW,346,3.5,3.5,74,0.00,CLR,,0.00,WeatherDisplay:10.37,2013-03-24 14:49:00,
2013-03-24 09:54:00,29.8,22.5,30.09,North,9,4.6,4.6,74,0.00,CLR,,0.00,WeatherDisplay:10.37,2013-03-24 14:54:00,
2013-03-24 09:59:00,30.1,22.5,30.09,NE,46,3.5,3.5,73,0.00,CLR,,0.00,WeatherDisplay:10.37,2013-03-24 14:59:00,
2013-03-24 10:04:00,30.3,22.4,30.09,NE,38,3.5,3.5,72,0.00,CLR,,0.00,WeatherDisplay:10.37,2013-03-24 15:04:00,
2013-03-24 10:09:00,30.4,21.4,30.09,NNE,17,6.9,6.9,69,0.00,CLR,,0.00,WeatherDisplay:10.37,2013-03-24 15:09:00,
2013-03-24 10:14:00,30.5,20.8,30.09,NNW,346,5.8,5.8,67,0.00,CLR,,0.00,WeatherDisplay:10.37,2013-03-24 15:14:00,
2013-03-24 10:19:00,30.6,20.9,30.09,NE,39,8.1,8.1,67,0.00,CLR,,0.00,WeatherDisplay:10.37,2013-03-24 15:19:00,
2013-03-24 10:24:00,30.6,20.9,30.08,North,360,5.8,5.8,67,0.00,CLR,,0.00,WeatherDisplay:10.37,2013-03-24 15:24:00,
2013-03-24 10:29:00,30.5,20.1,30.08,NE,43,5.8,5.8,65,0.00,CLR,,0.00,WeatherDisplay:10.37,2013-03-24 15:29:00,
2013-03-24 10:34:00,30.4,20.7,30.08,NNW,344,9.2,9.2,67,0.00,CLR,,0.00,WeatherDisplay:10.37,2013-03-24 15:34:00,
2013-03-24 10:39:00,30.5,20.5,30.08,North,355,5.8,5.8,66,0.00,CLR,,0.00,WeatherDisplay:10.37,2013-03-24 15:39:00,
2013-03-24 10:44:00,30.6,20.6,30.08,NNW,345,5.0,5.0,66,0.00,CLR,,0.00,WeatherDisplay:10.37,2013-03-24 15:44:00,
2013-03-24 10:49:00,30.5,20.1,30.08,North,5,8.1,8.1,65,0.00,CLR,,0.00,WeatherDisplay:10.37,2013-03-24 15:49:00,
2013-03-24 10:54:00,30.4,19.3,30.08,NE,48,11.5,11.5,63,0.00,CLR,,0.00,WeatherDisplay:10.37,2013-03-24 15:54:00,
2013-03-24 10:59:00,30.3,18.8,30.07,NNE,26,10.4,10.4,62,0.00,CLR,,0.00,WeatherDisplay:10.37,2013-03-24 15:59:00,
2013-03-24 11:04:00,30.4,19.3,30.07,NE,34,3.5,3.5,63,0.00,CLR,,0.00,WeatherDisplay:10.37,2013-03-24 16:04:00,
2013-03-24 11:09:00,30.9,19.8,30.07,NE,55,3.5,3.5,63,0.00,CLR,,0.00,WeatherDisplay:10.37,2013-03-24 16:09:00,
2013-03-24 11:14:00,31.1,19.2,30.07,NNE,20,4.6,4.6,61,0.00,CLR,,0.00,WeatherDisplay:10.37,2013-03-24 16:14:00,
2013-03-24 11:19:00,31.0,19.1,30.07,NE,49,10.4,10.4,61,0.00,CLR,,0.00,WeatherDisplay:10.37,2013-03-24 16:19:00,
2013-03-24 11:24:00,31.0,19.1,30.07,NE,44,10.4,10.4,61,0.00,CLR,,0.00,WeatherDisplay:10.37,2013-03-24 16:24:00,
2013-03-24 11:29:00,31.1,19.6,30.06,ENE,57,3.5,3.5,62,0.00,CLR,,0.00,WeatherDisplay:10.37,2013-03-24 16:29:00,
2013-03-24 11:34:00,31.6,20.1,30.06,NNE,29,5.8,5.8,62,0.00,CLR,,0.00,WeatherDisplay:10.37,2013-03-24 16:34:00,
2013-03-24 11:39:00,31.9,19.6,30.06,NE,42,10.4,10.4,60,0.00,CLR,,0.00,WeatherDisplay:10.37,2013-03-24 16:39:00,
2013-03-24 11:44:00,31.7,19.8,30.06,NE,42,6.9,6.9,61,0.00,CLR,,0.00,WeatherDisplay:10.37,2013-03-24 16:44:00,
2013-03-24 11:49:00,31.7,19.4,30.07,NE,51,11.5,11.5,60,0.00,CLR,,0.00,WeatherDisplay:10.37,2013-03-24 16:49:00,
2013-03-24 11:54:00,31.5,19.2,30.07,NNE,19,6.9,6.9,60,0.00,CLR,,0.00,WeatherDisplay:10.37,2013-03-24 16:54:00,
2013-03-24 11:59:00,31.6,19.3,30.07,NE,53,9.2,9.2,60,0.00,CLR,,0.00,WeatherDisplay:10.37,2013-03-24 16:59:00,
2013-03-24 12:04:00,31.7,19.4,30.07,ENE,73,10.4,10.4,60,0.00,CLR,,0.00,WeatherDisplay:10.37,2013-03-24 17:04:00,
2013-03-24 12:09:00,32.1,19.8,30.07,ENE,57,6.9,6.9,60,0.00,CLR,,0.00,WeatherDisplay:10.37,2013-03-24 17:09:00,
2013-03-24 12:14:00,32.3,20.0,30.07,NNE,32,9.2,9.2,60,0.00,CLR,,0.00,WeatherDisplay:10.37,2013-03-24 17:14:00,
2013-03-24 12:19:00,31.8,19.5,30.07,NE,53,13.8,13.8,60,0.00,CLR,,0.00,WeatherDisplay:10.37,2013-03-24 17:19:00,
2013-03-24 12:24:00,31.2,19.3,30.07,NE,51,11.5,11.5,61,0.00,CLR,,0.00,WeatherDisplay:10.37,2013-03-24 17:24:00,
2013-03-24 12:29:00,31.2,19.7,30.07,NNE,25,9.2,9.2,62,0.00,CLR,,0.00,WeatherDisplay:10.37,2013-03-24 17:29:00,
2013-03-24 12:34:00,30.9,19.8,30.07,NNE,29,6.9,6.9,63,0.00,CLR,,0.00,WeatherDisplay:10.37,2013-03-24 17:34:00,
2013-03-24 12:39:00,31.0,19.9,30.07,NNW,327,4.6,4.6,63,0.00,CLR,,0.00,WeatherDisplay:10.37,2013-03-24 17:39:00,
2013-03-24 12:44:00,31.0,20.2,30.07,NE,37,9.0,9.0,64,0.00,CLR,,0.00,WeatherDisplay:10.37,2013-03-24 17:44:00,
2013-03-24 12:49:00,30.5,20.1,30.07,NNE,19,4.6,4.6,65,0.00,CLR,,0.00,WeatherDisplay:10.37,2013-03-24 17:49:00,
2013-03-24 12:54:00,30.0,19.7,30.07,NE,45,4.6,4.6,65,0.00,CLR,,0.00,WeatherDisplay:10.37,2013-03-24 17:54:00,
2013-03-24 12:59:00,30.3,19.9,30.08,ENE,75,3.5,3.5,65,0.00,CLR,,0.00,WeatherDisplay:10.37,2013-03-24 17:59:00,
2013-03-24 13:04:00,30.3,19.9,30.07,East,90,4.6,4.6,65,0.00,CLR,,0.00,WeatherDisplay:10.37,2013-03-24 18:04:00,
2013-03-24 13:09:00,30.3,19.9,30.07,ENE,65,5.8,5.8,65,0.00,CLR,,0.00,WeatherDisplay:10.37,2013-03-24 18:09:00,
2013-03-24 13:14:00,30.2,20.2,30.07,NNE,28,3.5,3.5,66,0.00,CLR,,0.00,WeatherDisplay:10.37,2013-03-24 18:14:00,
2013-03-24 13:19:00,30.1,19.7,30.07,NE,38,3.5,3.5,65,0.00,CLR,,0.00,WeatherDisplay:10.37,2013-03-24 18:19:00,
2013-03-24 13:24:00,30.1,20.1,30.07,North,360,3.5,3.5,66,0.00,CLR,,0.00,WeatherDisplay:10.37,2013-03-24 18:24:00,
2013-03-24 13:29:00,30.3,20.3,30.07,NE,52,4.6,4.6,66,0.00,CLR,,0.00,WeatherDisplay:10.37,2013-03-24 18:29:00,
2013-03-24 13:34:00,30.5,20.5,30.07,North,5,2.3,2.3,66,0.00,CLR,,0.00,WeatherDisplay:10.37,2013-03-24 18:34:00,
2013-03-24 13:39:00,30.5,20.8,30.07,ENE,61,3.5,3.5,67,0.00,CLR,,0.00,WeatherDisplay:10.37,2013-03-24 18:39:00,
2013-03-24 13:44:00,30.6,20.6,30.06,NE,44,3.5,3.5,66,0.00,CLR,,0.00,WeatherDisplay:10.37,2013-03-24 18:44:00,
2013-03-24 13:49:00,30.6,20.6,30.06,North,11,5.8,5.8,66,0.00,CLR,,0.00,WeatherDisplay:10.37,2013-03-24 18:49:00,
2013-03-24 13:54:00,30.5,20.1,30.06,NE,36,4.6,4.6,65,0.00,CLR,,0.00,WeatherDisplay:10.37,2013-03-24 18:54:00,
2013-03-24 13:59:00,30.3,20.6,30.06,NNE,25,4.6,4.6,67,0.00,CLR,,0.00,WeatherDisplay:10.37,2013-03-24 18:59:00,
2013-03-24 14:04:00,30.3,20.6,30.06,NNE,19,6.9,6.9,67,0.00,CLR,,0.00,WeatherDisplay:10.37,2013-03-24 19:04:00,
2013-03-24 14:09:00,30.4,20.7,30.06,North,9,5.8,5.8,67,0.00,CLR,,0.00,WeatherDisplay:10.37,2013-03-24 19:09:00,
2013-03-24 14:14:00,30.5,20.8,30.06,NNW,342,11.5,11.5,67,0.00,CLR,,0.00,WeatherDisplay:10.37,2013-03-24 19:14:00,
2013-03-24 14:19:00,30.6,20.9,30.05,NE,48,6.9,6.9,67,0.00,CLR,,0.00,WeatherDisplay:10.37,2013-03-24 19:19:00,
2013-03-24 14:24:00,30.8,21.1,30.05,NE,46,9.2,9.2,67,0.00,CLR,,0.00,WeatherDisplay:10.37,2013-03-24 19:24:00,
2013-03-24 14:29:00,30.6,20.9,30.05,NNE,20,9.2,9.2,67,0.00,CLR,,0.00,WeatherDisplay:10.37,2013-03-24 19:29:00,
2013-03-24 14:34:00,30.6,20.9,30.05,North,350,12.7,12.7,67,0.00,CLR,,0.00,WeatherDisplay:10.37,2013-03-24 19:34:00,
2013-03-24 14:40:00,30.6,20.9,30.05,NNE,24,10.4,10.4,67,0.00,CLR,,0.00,WeatherDisplay:10.37,2013-03-24 19:40:00,
2013-03-24 14:45:00,30.3,21.0,30.05,NNE,12,10.0,10.0,68,0.00,CLR,,0.00,WeatherDisplay:10.37,2013-03-24 19:45:00,
2013-03-24 14:50:00,30.3,21.0,30.05,NNE,28,6.9,6.9,68,0.00,CLR,,0.00,WeatherDisplay:10.37,2013-03-24 19:50:00,
2013-03-24 14:55:00,30.3,20.6,30.04,NE,45,9.2,9.2,67,0.00,CLR,,0.00,WeatherDisplay:10.37,2013-03-24 19:55:00,
2013-03-24 15:00:00,30.3,21.0,30.04,NE,48,4.6,4.6,68,0.00,CLR,,0.00,WeatherDisplay:10.37,2013-03-24 20:00:00,
2013-03-24 15:05:00,30.3,21.0,30.04,ENE,67,11.5,11.5,68,0.00,CLR,,0.00,WeatherDisplay:10.37,2013-03-24 20:05:00,
2013-03-24 15:10:00,30.1,20.8,30.04,NE,37,9.2,9.2,68,0.00,CLR,,0.00,WeatherDisplay:10.37,2013-03-24 20:10:00,
2013-03-24 15:15:00,30.2,21.2,30.04,NNE,22,9.2,9.2,69,0.00,CLR,,0.00,WeatherDisplay:10.37,2013-03-24 20:15:00,
2013-03-24 15:20:00,30.3,21.3,30.04,North,5,3.5,3.5,69,0.00,CLR,,0.00,WeatherDisplay:10.37,2013-03-24 20:20:00,
2013-03-24 15:25:00,30.3,21.3,30.04,NNE,23,6.9,6.9,69,0.00,CLR,,0.00,WeatherDisplay:10.37,2013-03-24 20:25:00,
2013-03-24 15:30:00,30.4,21.4,30.04,NE,46,1.2,1.2,69,0.00,CLR,,0.00,WeatherDisplay:10.37,2013-03-24 20:30:00,
2013-03-24 15:35:00,30.8,21.8,30.04,NNE,33,2.0,6.0,69,0.00,CLR,,0.00,WeatherDisplay:10.37,2013-03-24 20:35:00,
2013-03-24 15:41:00,30.4,21.4,30.03,NE,55,6.9,7.0,69,0.00,CLR,,0.00,WeatherDisplay:10.37,2013-03-24 20:41:00,
2013-03-24 15:45:00,30.3,21.3,30.03,North,358,2.0,10.0,69,0.00,CLR,,0.00,WeatherDisplay:10.37,2013-03-24 20:45:00,
2013-03-24 15:54:00,30.4,21.4,30.04,NNE,31,5.0,5.0,69,0.00,CLR,,0.00,WeatherDisplay:10.37,2013-03-24 20:54:00,
2013-03-24 15:59:00,30.3,21.3,30.04,North,355,6.9,6.9,69,0.00,CLR,,0.00,WeatherDisplay:10.37,2013-03-24 20:59:00,
2013-03-24 16:04:00,30.1,21.2,30.04,NNE,30,4.6,4.6,69,0.00,CLR,,0.00,WeatherDisplay:10.37,2013-03-24 21:04:00,
2013-03-24 16:09:00,30.1,21.2,30.04,ENE,61,9.2,9.2,69,0.00,CLR,,0.00,WeatherDisplay:10.37,2013-03-24 21:09:00,
2013-03-24 16:14:00,29.8,21.2,30.04,NE,38,11.5,11.5,70,0.00,CLR,,0.00,WeatherDisplay:10.37,2013-03-24 21:14:00,
2013-03-24 16:19:00,29.8,21.2,30.04,NNE,13,2.3,2.3,70,0.00,CLR,,0.00,WeatherDisplay:10.37,2013-03-24 21:19:00,
2013-03-24 16:24:00,30.0,21.4,30.04,NNE,27,6.9,6.9,70,0.00,CLR,,0.00,WeatherDisplay:10.37,2013-03-24 21:24:00,
2013-03-24 16:29:00,30.0,21.1,30.04,North,5,5.8,5.8,69,0.00,CLR,,0.00,WeatherDisplay:10.37,2013-03-24 21:29:00,
2013-03-24 16:34:00,30.0,21.4,30.04,NNE,28,8.1,8.1,70,0.00,CLR,,0.00,WeatherDisplay:10.37,2013-03-24 21:34:00,
2013-03-24 16:40:00,30.1,21.5,30.04,NE,38,5.8,5.8,70,0.00,CLR,,0.00,WeatherDisplay:10.37,2013-03-24 21:40:00,
2013-03-24 16:45:00,30.2,21.2,30.04,NNE,13,5.8,5.8,69,0.00,CLR,,0.00,WeatherDisplay:10.37,2013-03-24 21:45:00,
2013-03-24 16:50:00,30.2,21.2,30.04,NNE,30,4.6,4.6,69,0.00,CLR,,0.00,WeatherDisplay:10.37,2013-03-24 21:50:00,
2013-03-24 16:55:00,30.2,21.2,30.04,NNE,17,4.6,4.6,69,0.00,CLR,,0.00,WeatherDisplay:10.37,2013-03-24 21:55:00,
2013-03-24 17:00:00,30.3,21.3,30.04,NNE,30,9.2,9.2,69,0.00,CLR,,0.00,WeatherDisplay:10.37,2013-03-24 22:00:00,
2013-03-24 17:05:00,30.4,21.4,30.04,North,355,2.3,2.3,69,0.00,CLR,,0.00,WeatherDisplay:10.37,2013-03-24 22:05:00,
2013-03-24 17:10:00,30.5,21.5,30.04,NNE,32,4.6,4.6,69,0.00,CLR,,0.00,WeatherDisplay:10.37,2013-03-24 22:10:00,
2013-03-24 17:15:00,30.7,21.4,30.04,NNE,22,3.5,3.5,68,0.00,CLR,,0.00,WeatherDisplay:10.37,2013-03-24 22:15:00,
2013-03-24 17:20:00,30.8,21.5,30.04,NNW,348,3.5,3.5,68,0.00,CLR,,0.00,WeatherDisplay:10.37,2013-03-24 22:20:00,
2013-03-24 17:25:00,30.8,21.5,30.04,NNE,32,3.5,3.5,68,0.00,CLR,,0.00,WeatherDisplay:10.37,2013-03-24 22:25:00,
2013-03-24 17:30:00,30.9,21.6,30.04,NNE,26,3.5,3.5,68,0.00,CLR,,0.00,WeatherDisplay:10.37,2013-03-24 22:30:00,
2013-03-24 17:35:00,31.0,21.3,30.04,NNE,26,8.1,8.1,67,0.00,CLR,,0.00,WeatherDisplay:10.37,2013-03-24 22:35:00,
2013-03-24 17:40:00,30.9,20.9,30.04,NNE,28,8.1,8.1,66,0.00,CLR,,0.00,WeatherDisplay:10.37,2013-03-24 22:40:00,
2013-03-24 17:45:00,31.0,21.3,30.04,NNE,18,3.5,3.5,67,0.00,CLR,,0.00,WeatherDisplay:10.37,2013-03-24 22:45:00,
2013-03-24 17:50:00,31.1,21.1,30.04,NNW,348,5.0,5.0,66,0.00,CLR,,0.00,WeatherDisplay:10.37,2013-03-24 22:50:00,
2013-03-24 17:55:00,31.1,21.1,30.04,North,360,4.6,4.6,66,0.00,CLR,,0.00,WeatherDisplay:10.37,2013-03-24 22:55:00,
2013-03-24 18:00:00,31.0,21.0,30.04,North,349,3.5,3.5,66,0.00,CLR,,0.00,WeatherDisplay:10.37,2013-03-24 23:00:00,
2013-03-24 18:05:00,31.0,21.0,30.05,North,355,4.6,4.6,66,0.00,CLR,,0.00,WeatherDisplay:10.37,2013-03-24 23:05:00,
2013-03-24 18:17:00,31.2,21.2,30.05,North,10,0.0,1.9,66,0.00,CLR,,0.00,WeatherDisplay:10.37,2013-03-24 23:17:00,
2013-03-24 18:22:00,31.2,20.8,30.05,North,11,10.4,10.4,65,0.00,CLR,,0.00,WeatherDisplay:10.37,2013-03-24 23:22:00,
2013-03-24 18:27:00,31.2,20.8,30.05,North,360,6.9,6.9,65,0.00,CLR,,0.00,WeatherDisplay:10.37,2013-03-24 23:27:00,
2013-03-24 18:32:00,31.2,20.8,30.05,NE,51,5.0,5.0,65,0.00,CLR,,0.00,WeatherDisplay:10.37,2013-03-24 23:32:00,
2013-03-24 18:37:00,31.2,20.8,30.05,NNE,25,5.8,5.8,65,0.00,CLR,,0.00,WeatherDisplay:10.37,2013-03-24 23:37:00,
2013-03-24 18:42:00,31.1,20.7,30.06,NNE,17,5.8,5.8,65,0.00,CLR,,0.00,WeatherDisplay:10.37,2013-03-24 23:42:00,
2013-03-24 18:47:00,31.0,21.0,30.06,NE,35,10.4,10.4,66,0.00,CLR,,0.00,WeatherDisplay:10.37,2013-03-24 23:47:00,
2013-03-24 18:53:00,30.8,21.1,30.06,North,5,5.8,5.8,67,0.00,CLR,,0.00,WeatherDisplay:10.37,2013-03-24 23:53:00,
2013-03-24 18:58:00,30.7,21.4,30.06,NNE,28,4.6,4.6,68,0.00,CLR,,0.00,WeatherDisplay:10.37,2013-03-24 23:58:00,
2013-03-24 19:03:00,30.6,21.6,30.07,North,360,6.9,6.9,69,0.00,CLR,,0.00,WeatherDisplay:10.37,2013-03-25 00:03:00,
2013-03-24 19:08:00,30.5,21.5,30.07,NNE,23,10.4,10.4,69,0.00,CLR,,0.00,WeatherDisplay:10.37,2013-03-25 00:08:00,
2013-03-24 19:13:00,30.4,21.8,30.07,NE,49,4.0,4.0,70,0.00,CLR,,0.00,WeatherDisplay:10.37,2013-03-25 00:13:00,
2013-03-24 19:18:00,30.3,21.7,30.07,NNE,26,3.5,3.5,70,0.00,CLR,,0.00,WeatherDisplay:10.37,2013-03-25 00:18:00,
2013-03-24 19:23:00,30.3,22.0,30.07,NNW,331,4.6,4.6,71,0.00,CLR,,0.00,WeatherDisplay:10.37,2013-03-25 00:23:00,
2013-03-24 19:28:00,30.3,22.0,30.07,NNE,22,6.9,6.9,71,0.00,CLR,,0.00,WeatherDisplay:10.37,2013-03-25 00:28:00,
2013-03-24 19:33:00,30.2,22.3,30.07,NNE,20,5.8,5.8,72,0.00,CLR,,0.00,WeatherDisplay:10.37,2013-03-25 00:33:00,
2013-03-24 19:38:00,30.1,22.2,30.07,NNW,342,7.0,7.0,72,0.00,CLR,,0.00,WeatherDisplay:10.37,2013-03-25 00:38:00,
2013-03-24 19:43:00,30.1,22.5,30.08,NNW,330,3.5,3.5,73,0.00,CLR,,0.00,WeatherDisplay:10.37,2013-03-25 00:43:00,
2013-03-24 19:48:00,30.1,22.5,30.08,North,360,2.3,2.3,73,0.00,CLR,,0.00,WeatherDisplay:10.37,2013-03-25 00:48:00,
2013-03-24 19:53:00,30.0,22.4,30.08,North,11,10.4,10.4,73,0.00,CLR,,0.00,WeatherDisplay:10.37,2013-03-25 00:53:00,
2013-03-24 19:58:00,29.9,22.6,30.08,North,355,3.5,3.5,74,0.00,CLR,,0.00,WeatherDisplay:10.37,2013-03-25 00:58:00,
2013-03-24 20:03:00,29.9,22.6,30.08,North,360,8.1,8.1,74,0.00,CLR,,0.00,WeatherDisplay:10.37,2013-03-25 01:03:00,
2013-03-24 20:08:00,29.9,22.9,30.08,NNW,339,3.5,3.5,75,0.00,CLR,,0.00,WeatherDisplay:10.37,2013-03-25 01:08:00,
2013-03-24 20:13:00,29.8,22.8,30.08,NE,38,9.2,9.2,75,0.00,CLR,,0.00,WeatherDisplay:10.37,2013-03-25 01:13:00,
2013-03-24 20:18:00,29.8,22.8,30.08,North,355,3.5,3.5,75,0.00,CLR,,0.00,WeatherDisplay:10.37,2013-03-25 01:18:00,
2013-03-24 20:23:00,29.7,22.7,30.08,North,355,9.2,9.2,75,0.00,CLR,,0.00,WeatherDisplay:10.37,2013-03-25 01:23:00,
2013-03-24 20:28:00,29.6,23.0,30.08,NNE,26,5.8,5.8,76,0.00,CLR,,0.00,WeatherDisplay:10.37,2013-03-25 01:28:00,
2013-03-24 20:33:00,29.5,22.9,30.08,NW,323,3.5,3.5,76,0.00,CLR,,0.00,WeatherDisplay:10.37,2013-03-25 01:33:00,
2013-03-24 20:38:00,29.4,22.8,30.09,NNE,14,3.5,3.5,76,0.00,CLR,,0.00,WeatherDisplay:10.37,2013-03-25 01:38:00,
2013-03-24 20:43:00,29.3,23.0,30.09,North,9,3.5,3.5,77,0.00,CLR,,0.00,WeatherDisplay:10.37,2013-03-25 01:43:00,
2013-03-24 20:48:00,29.2,23.2,30.09,North,10,3.5,3.5,78,0.00,CLR,,0.00,WeatherDisplay:10.37,2013-03-25 01:48:00,
2013-03-24 20:53:00,29.0,23.0,30.09,NNW,347,3.5,3.5,78,0.00,CLR,,0.00,WeatherDisplay:10.37,2013-03-25 01:53:00,
2013-03-24 20:58:00,28.9,22.9,30.09,North,355,4.6,4.6,78,0.00,CLR,,0.00,WeatherDisplay:10.37,2013-03-25 01:58:00,
2013-03-24 21:03:00,28.7,23.0,30.09,NNE,26,4.0,4.0,79,0.00,CLR,,0.00,WeatherDisplay:10.37,2013-03-25 02:03:00,
2013-03-24 21:08:00,28.6,23.2,30.09,NNW,338,6.9,6.9,80,0.00,CLR,,0.00,WeatherDisplay:10.37,2013-03-25 02:08:00,
2013-03-24 21:13:00,28.5,23.1,30.09,NNW,333,3.5,3.5,80,0.00,CLR,,0.00,WeatherDisplay:10.37,2013-03-25 02:13:00,
2013-03-24 21:18:00,28.4,23.3,30.09,NNW,329,5.8,5.8,81,0.00,CLR,,0.00,WeatherDisplay:10.37,2013-03-25 02:18:00,
2013-03-24 21:23:00,28.3,23.2,30.10,North,355,3.5,3.5,81,0.00,CLR,,0.00,WeatherDisplay:10.37,2013-03-25 02:23:00,
2013-03-24 21:28:00,28.2,23.4,30.10,NNW,336,4.6,4.6,82,0.00,CLR,,0.00,WeatherDisplay:10.37,2013-03-25 02:28:00,
2013-03-24 21:33:00,28.2,23.4,30.10,North,360,3.5,3.5,82,0.00,CLR,,0.00,WeatherDisplay:10.37,2013-03-25 02:33:00,
2013-03-24 21:38:00,28.1,23.6,30.10,NNW,345,3.5,3.5,83,0.00,CLR,,0.00,WeatherDisplay:10.37,2013-03-25 02:38:00,
2013-03-24 21:43:00,28.1,23.6,30.10,NNW,347,3.5,3.5,83,0.00,CLR,,0.00,WeatherDisplay:10.37,2013-03-25 02:43:00,
2013-03-24 21:48:00,28.0,23.5,30.10,NNW,336,4.6,4.6,83,0.00,CLR,,0.00,WeatherDisplay:10.37,2013-03-25 02:48:00,
2013-03-24 21:53:00,28.0,23.5,30.10,NW,317,4.6,4.6,83,0.00,CLR,,0.00,WeatherDisplay:10.37,2013-03-25 02:53:00,
2013-03-24 21:58:00,27.9,23.4,30.10,NW,321,3.5,3.5,83,0.00,CLR,,0.00,WeatherDisplay:10.37,2013-03-25 02:58:00,
2013-03-24 22:03:00,27.9,23.4,30.10,NNW,341,4.6,4.6,83,0.00,CLR,,0.00,WeatherDisplay:10.37,2013-03-25 03:03:00,
2013-03-24 22:08:00,27.9,23.4,30.10,North,5,0.0,0.7,83,0.00,CLR,,0.00,WeatherDisplay:10.37,2013-03-25 03:08:00,
2013-03-24 22:13:00,27.8,23.3,30.10,NNW,327,3.5,3.5,83,0.00,CLR,,0.00,WeatherDisplay:10.37,2013-03-25 03:13:00,
2013-03-24 22:18:00,27.8,23.3,30.10,NW,317,3.5,3.5,83,0.00,CLR,,0.00,WeatherDisplay:10.37,2013-03-25 03:18:00,
2013-03-24 22:23:00,27.7,23.2,30.10,NNW,338,2.3,2.3,83,0.00,CLR,,0.00,WeatherDisplay:10.37,2013-03-25 03:23:00,
2013-03-24 22:28:00,27.6,23.4,30.10,NNW,348,3.5,3.5,84,0.00,CLR,,0.00,WeatherDisplay:10.37,2013-03-25 03:28:00,
2013-03-24 22:33:00,27.6,23.4,30.10,NNW,334,3.5,3.5,84,0.00,CLR,,0.00,WeatherDisplay:10.37,2013-03-25 03:33:00,
2013-03-24 22:38:00,27.5,23.3,30.10,NNW,336,3.5,3.5,84,0.00,CLR,,0.00,WeatherDisplay:10.37,2013-03-25 03:38:00,
2013-03-24 22:43:00,27.5,23.3,30.10,NNW,329,3.5,3.5,84,0.00,CLR,,0.00,WeatherDisplay:10.37,2013-03-25 03:43:00,
2013-03-24 22:48:00,27.5,23.3,30.10,North,355,2.3,2.3,84,0.00,CLR,,0.00,WeatherDisplay:10.37,2013-03-25 03:48:00,
2013-03-24 22:53:00,27.5,23.3,30.10,NNW,338,3.5,3.5,84,0.00,CLR,,0.00,WeatherDisplay:10.37,2013-03-25 03:53:00,
2013-03-24 22:58:00,27.5,23.3,30.10,NNW,340,4.6,4.6,84,0.00,CLR,,0.00,WeatherDisplay:10.37,2013-03-25 03:58:00,
2013-03-24 23:00:00,27.5,23.3,30.10,NNW,338,0.0,5.0,84,0.00,CLR,,0.00,WeatherDisplay:10.37,2013-03-25 04:00:00,
2013-03-24 23:05:00,27.5,23.0,30.10,NNW,345,3.5,3.5,83,0.00,CLR,,0.00,WeatherDisplay:10.37,2013-03-25 04:05:00,
2013-03-24 23:10:00,27.5,23.0,30.10,NNW,341,3.5,3.5,83,0.00,CLR,,0.00,WeatherDisplay:10.37,2013-03-25 04:10:00,
2013-03-24 23:15:00,27.5,23.0,30.10,NW,324,4.6,4.6,83,0.00,CLR,,0.00,WeatherDisplay:10.37,2013-03-25 04:15:00,
2013-03-24 23:20:00,27.6,22.8,30.10,NNW,330,3.5,3.5,82,0.00,CLR,,0.00,WeatherDisplay:10.37,2013-03-25 04:20:00,
2013-03-24 23:25:00,27.6,22.8,30.10,NNW,338,4.6,4.6,82,0.00,CLR,,0.00,WeatherDisplay:10.37,2013-03-25 04:25:00,
2013-03-24 23:30:00,27.8,22.7,30.10,NNW,346,3.5,3.5,81,0.00,CLR,,0.00,WeatherDisplay:10.37,2013-03-25 04:30:00,
2013-03-24 23:35:00,27.8,22.7,30.10,NNW,344,5.8,5.8,81,0.00,CLR,,0.00,WeatherDisplay:10.37,2013-03-25 04:35:00,
2013-03-24 23:40:00,27.8,22.4,30.10,North,351,5.8,5.8,80,0.00,CLR,,0.00,WeatherDisplay:10.37,2013-03-25 04:40:00,
2013-03-24 23:45:00,28.0,22.0,30.10,North,355,9.2,9.2,78,0.00,CLR,,0.00,WeatherDisplay:10.37,2013-03-25 04:45:00,
2013-03-24 23:50:00,28.3,21.4,30.10,North,10,12.7,12.7,75,0.00,CLR,,0.00,WeatherDisplay:10.37,2013-03-25 04:50:00,
2013-03-24 23:55:00,28.5,21.6,30.10,NNW,341,6.9,6.9,75,0.00,CLR,,0.00,WeatherDisplay:10.37,2013-03-25 04:55:00,